createdAt,value
2023-03-22T00:00:00.524Z,5.40
2023-03-22T00:02:30.624Z,5.40
2023-03-22T00:04:58.810Z,5.40
2023-03-22T00:07:28.050Z,5.40
2023-03-22T00:09:56.238Z,5.40
2023-03-22T00:12:24.400Z,5.30
2023-03-22T00:14:53.671Z,5.40
2023-03-22T00:17:23.101Z,5.30
2023-03-22T00:19:54.430Z,5.30
2023-03-22T00:22:22.713Z,5.30
2023-03-22T00:24:50.919Z,5.40
2023-03-22T00:27:19.070Z,5.30
2023-03-22T00:29:47.220Z,5.30
2023-03-22T00:32:17.378Z,5.30
2023-03-22T00:34:45.584Z,5.40
2023-03-22T00:37:16.492Z,5.40
2023-03-22T00:39:45.192Z,5.40
2023-03-22T00:42:13.339Z,5.30
2023-03-22T00:44:41.622Z,5.30
2023-03-22T00:47:09.793Z,5.20
2023-03-22T00:49:38.570Z,5.20
2023-03-22T00:52:09.079Z,5.10
2023-03-22T00:54:38.621Z,5.10
2023-03-22T00:57:06.900Z,5.10
2023-03-22T00:59:38.433Z,5.10
2023-03-22T01:02:06.774Z,5.00
2023-03-22T01:04:35.802Z,5.00
2023-03-22T01:07:07.794Z,5.00
2023-03-22T01:09:39.003Z,5.00
2023-03-22T01:12:07.535Z,5.00
2023-03-22T01:14:35.766Z,5.00
2023-03-22T01:17:04.899Z,5.00
2023-03-22T01:19:33.083Z,5.00
2023-03-22T01:22:01.511Z,5.00
2023-03-22T01:24:31.001Z,5.10
2023-03-22T01:27:00.627Z,5.10
2023-03-22T01:29:32.287Z,5.10
2023-03-22T01:32:04.155Z,5.10
2023-03-22T01:34:32.506Z,5.10
2023-03-22T01:37:01.886Z,5.10
2023-03-22T01:39:31.924Z,5.10
2023-03-22T01:42:05.630Z,5.10
2023-03-22T01:44:34.076Z,5.00
2023-03-22T01:47:04.098Z,5.00
2023-03-22T01:49:35.762Z,5.00
2023-03-22T01:52:09.406Z,5.10
2023-03-22T01:54:51.592Z,5.10
2023-03-22T01:57:42.875Z,5.10
2023-03-22T02:00:19.027Z,5.10
2023-03-22T02:03:25.937Z,5.10
2023-03-22T02:05:55.116Z,5.10
2023-03-22T02:08:25.724Z,5.10
2023-03-22T02:11:00.620Z,5.10
2023-03-22T02:14:06.648Z,5.10
2023-03-22T02:17:06.375Z,5.10
2023-03-22T02:20:15.579Z,5.10
2023-03-22T02:23:29.307Z,5.00
2023-03-22T02:26:22.174Z,5.00
2023-03-22T02:28:54.110Z,5.00
2023-03-22T02:31:50.170Z,4.90
2023-03-22T02:34:45.481Z,4.90
2023-03-22T02:37:39.725Z,4.90
2023-03-22T02:40:15.381Z,4.90
2023-03-22T02:42:54.408Z,4.90
2023-03-22T02:45:29.653Z,4.90
2023-03-22T02:48:09.352Z,4.90
2023-03-22T02:50:42.386Z,4.90
2023-03-22T02:53:17.661Z,5.00
2023-03-22T02:55:52.391Z,5.00
2023-03-22T02:58:24.324Z,5.00
2023-03-22T03:00:57.065Z,5.00
2023-03-22T03:03:27.179Z,5.00
2023-03-22T03:05:59.604Z,5.10
2023-03-22T03:08:29.174Z,5.10
2023-03-22T03:10:59.829Z,5.10
2023-03-22T03:13:30.943Z,5.20
2023-03-22T03:16:01.789Z,5.30
2023-03-22T03:18:40.887Z,5.30
2023-03-22T03:21:21.671Z,5.40
2023-03-22T03:23:57.896Z,5.40
2023-03-22T03:26:33.769Z,5.40
2023-03-22T03:29:09.974Z,5.40
2023-03-22T03:31:44.794Z,5.40
2023-03-22T03:34:20.423Z,5.40
2023-03-22T03:36:54.920Z,5.40
2023-03-22T03:39:25.806Z,5.40
2023-03-22T03:41:57.805Z,5.40
2023-03-22T03:44:29.103Z,5.40
2023-03-22T03:46:58.711Z,5.40
2023-03-22T03:49:27.317Z,5.30
2023-03-22T03:51:57.166Z,5.30
2023-03-22T03:54:25.518Z,5.30
2023-03-22T03:56:55.866Z,5.20
2023-03-22T03:59:24.471Z,5.20
2023-03-22T04:01:54.297Z,5.30
2023-03-22T04:04:29.631Z,5.30
2023-03-22T04:07:03.774Z,5.30
2023-03-22T04:09:34.601Z,5.30
2023-03-22T04:12:25.938Z,5.30
2023-03-22T04:15:24.188Z,5.20
2023-03-22T04:17:57.071Z,5.20
2023-03-22T04:20:31.636Z,5.20
2023-03-22T04:23:00.303Z,5.10
2023-03-22T04:25:30.188Z,5.00
2023-03-22T04:28:06.367Z,4.90
2023-03-22T04:30:36.717Z,4.90
2023-03-22T04:33:47.048Z,4.90
2023-03-22T04:36:24.337Z,4.90
2023-03-22T04:39:28.188Z,4.90
2023-03-22T04:42:06.392Z,4.90
2023-03-22T04:44:37.174Z,5.00
2023-03-22T04:47:05.793Z,5.00
2023-03-22T04:49:34.812Z,5.10
2023-03-22T04:52:03.273Z,5.10
2023-03-22T04:54:35.989Z,5.10
2023-03-22T04:57:05.127Z,5.20
2023-03-22T04:59:40.694Z,5.30
2023-03-22T05:02:08.896Z,5.30
2023-03-22T05:04:43.566Z,5.30
2023-03-22T05:07:25.089Z,5.40
2023-03-22T05:09:57.473Z,5.50
2023-03-22T05:12:25.801Z,5.50
2023-03-22T05:15:21.346Z,5.60
2023-03-22T05:17:51.489Z,5.70
2023-03-22T05:20:19.815Z,5.70
2023-03-22T05:22:57.326Z,5.70
2023-03-22T05:25:28.137Z,5.80
2023-03-22T05:28:01.416Z,5.80
2023-03-22T05:30:57.443Z,5.90
2023-03-22T05:33:47.538Z,6.00
2023-03-22T05:36:19.410Z,6.10
2023-03-22T05:39:09.040Z,6.10
2023-03-22T05:41:39.542Z,6.30
2023-03-22T05:44:10.830Z,6.40
2023-03-22T05:46:44.786Z,6.40
2023-03-22T05:49:33.589Z,6.50
2023-03-22T05:52:04.354Z,6.60
2023-03-22T05:54:46.349Z,6.70
2023-03-22T05:57:17.063Z,6.80
2023-03-22T05:59:45.706Z,6.90
2023-03-22T06:02:22.143Z,7.00
2023-03-22T06:04:50.567Z,7.10
2023-03-22T06:07:19.333Z,7.10
2023-03-22T06:09:52.552Z,7.20
2023-03-22T06:12:27.198Z,7.30
2023-03-22T06:15:16.760Z,7.40
2023-03-22T06:17:57.364Z,7.50
2023-03-22T06:20:29.620Z,7.60
2023-03-22T06:23:02.948Z,7.80
2023-03-22T06:25:31.261Z,7.80
2023-03-22T06:27:59.725Z,8.00
2023-03-22T06:30:28.478Z,8.10
2023-03-22T06:33:21.143Z,8.30
2023-03-22T06:35:54.903Z,8.50
2023-03-22T06:38:31.574Z,8.80
2023-03-22T06:40:59.784Z,9.10
2023-03-22T06:43:28.033Z,9.30
2023-03-22T06:46:06.866Z,9.50
2023-03-22T06:48:45.849Z,9.60
2023-03-22T06:51:17.114Z,9.70
2023-03-22T06:53:48.420Z,9.90
2023-03-22T06:56:16.675Z,10.10
2023-03-22T06:58:52.469Z,10.20
2023-03-22T07:01:20.986Z,10.30
2023-03-22T07:03:50.925Z,10.40
2023-03-22T07:06:22.557Z,10.60
2023-03-22T07:08:52.292Z,10.80
2023-03-22T07:11:26.945Z,10.90
2023-03-22T07:14:00.461Z,11.00
2023-03-22T07:16:39.109Z,11.10
2023-03-22T07:19:09.994Z,11.00
2023-03-22T07:21:38.581Z,11.10
2023-03-22T07:24:12.071Z,11.10
2023-03-22T07:26:40.835Z,11.10
2023-03-22T07:29:10.579Z,11.30
2023-03-22T07:31:40.091Z,11.40
2023-03-22T07:34:24.598Z,11.60
2023-03-22T07:37:03.993Z,11.70
2023-03-22T07:39:32.905Z,11.80
2023-03-22T07:42:01.443Z,11.90
2023-03-22T07:44:49.742Z,12.10
2023-03-22T07:47:37.772Z,12.20
2023-03-22T07:50:27.856Z,12.30
2023-03-22T07:52:58.277Z,12.40
2023-03-22T07:55:27.009Z,12.60
2023-03-22T07:57:55.245Z,12.80
2023-03-22T08:00:24.182Z,12.90
2023-03-22T08:03:08.791Z,13.10
2023-03-22T08:05:58.894Z,13.40
2023-03-22T08:08:27.491Z,13.40
2023-03-22T08:10:55.815Z,13.30
2023-03-22T08:13:24.023Z,13.40
2023-03-22T08:15:52.341Z,13.40
2023-03-22T08:18:21.786Z,13.50
2023-03-22T08:20:56.307Z,13.70
2023-03-22T08:23:38.394Z,13.80
2023-03-22T08:26:27.835Z,14.10
2023-03-22T08:28:58.470Z,14.50
2023-03-22T08:31:27.126Z,14.60
2023-03-22T08:33:55.452Z,14.60
2023-03-22T08:36:25.084Z,14.60
2023-03-22T08:39:01.426Z,14.60
2023-03-22T08:41:52.421Z,14.50
2023-03-22T08:44:20.841Z,14.30
2023-03-22T08:46:52.216Z,14.20
2023-03-22T08:49:20.539Z,14.10
2023-03-22T08:51:57.679Z,14.00
2023-03-22T08:54:49.016Z,14.00
2023-03-22T08:57:38.760Z,14.00
2023-03-22T09:00:45.663Z,13.90
2023-03-22T09:03:29.268Z,13.80
2023-03-22T09:05:57.508Z,13.70
2023-03-22T09:08:27.356Z,13.70
2023-03-22T09:11:02.871Z,13.70
2023-03-22T09:13:32.268Z,13.60
2023-03-22T09:16:02.830Z,13.60
2023-03-22T09:18:33.891Z,13.50
2023-03-22T09:21:07.390Z,13.40
2023-03-22T09:23:57.656Z,13.30
2023-03-22T09:26:37.698Z,13.30
2023-03-22T09:29:08.578Z,13.30
2023-03-22T09:31:36.973Z,13.30
2023-03-22T09:34:17.953Z,13.30
2023-03-22T09:36:47.467Z,13.30
2023-03-22T09:39:19.831Z,13.30
2023-03-22T09:41:55.062Z,13.30
2023-03-22T09:44:28.341Z,13.20
2023-03-22T09:47:00.542Z,13.20
2023-03-22T09:49:50.491Z,13.30
2023-03-22T09:52:21.285Z,13.50
2023-03-22T09:54:52.900Z,13.80
2023-03-22T09:57:27.486Z,13.90
2023-03-22T09:59:59.649Z,13.90
2023-03-22T10:02:44.169Z,13.90
2023-03-22T10:05:21.944Z,13.80
2023-03-22T10:08:19.992Z,13.80
2023-03-22T10:10:50.782Z,13.70
2023-03-22T10:13:24.553Z,13.70
2023-03-22T10:15:54.913Z,13.80
2023-03-22T10:18:26.702Z,13.80
2023-03-22T10:21:01.313Z,13.70
2023-03-22T10:23:33.892Z,13.70
2023-03-22T10:26:05.159Z,13.70
2023-03-22T10:28:39.489Z,13.70
2023-03-22T10:31:11.883Z,13.70
2023-03-22T10:33:50.156Z,13.60
2023-03-22T10:36:20.808Z,13.60
2023-03-22T10:38:51.610Z,13.50
2023-03-22T10:41:24.722Z,13.50
2023-03-22T10:43:58.993Z,13.50
2023-03-22T10:46:29.967Z,13.40
2023-03-22T10:49:00.783Z,13.40
2023-03-22T10:51:32.197Z,13.40
2023-03-22T10:54:02.670Z,13.40
2023-03-22T10:56:32.394Z,13.50
2023-03-22T10:59:00.682Z,13.70
2023-03-22T11:01:31.605Z,13.70
2023-03-22T11:04:06.452Z,13.80
2023-03-22T11:06:39.826Z,13.90
2023-03-22T11:09:14.529Z,13.90
2023-03-22T11:11:50.806Z,13.90
2023-03-22T11:14:24.270Z,13.90
2023-03-22T11:16:56.418Z,13.90
2023-03-22T11:19:27.433Z,13.90
2023-03-22T11:21:57.451Z,13.80
2023-03-22T11:24:27.520Z,13.80
2023-03-22T11:27:06.290Z,13.80
2023-03-22T11:29:43.338Z,13.80
2023-03-22T11:32:23.536Z,13.70
2023-03-22T11:35:01.824Z,13.70
2023-03-22T11:37:30.621Z,13.70
2023-03-22T11:40:05.192Z,13.80
2023-03-22T11:42:37.025Z,13.70
2023-03-22T11:45:09.146Z,13.70
2023-03-22T11:47:40.525Z,13.70
2023-03-22T11:50:20.695Z,13.70
2023-03-22T11:52:49.540Z,13.80
2023-03-22T11:55:18.660Z,13.90
2023-03-22T11:57:50.284Z,14.00
2023-03-22T12:00:23.022Z,14.20
2023-03-22T12:02:59.436Z,14.40
2023-03-22T12:05:31.039Z,14.50
2023-03-22T12:08:04.824Z,14.70
2023-03-22T12:10:39.615Z,14.90
2023-03-22T12:13:15.472Z,15.10
2023-03-22T12:15:48.661Z,15.20
2023-03-22T12:18:23.829Z,15.20
2023-03-22T12:20:56.153Z,15.20
2023-03-22T12:23:27.132Z,15.20
2023-03-22T12:26:01.439Z,15.20
2023-03-22T12:28:35.663Z,15.40
2023-03-22T12:31:07.796Z,15.50
2023-03-22T12:33:40.924Z,15.40
2023-03-22T12:36:12.050Z,15.40
2023-03-22T12:38:49.551Z,15.50
2023-03-22T12:41:24.613Z,15.50
2023-03-22T12:43:56.934Z,15.50
2023-03-22T12:46:28.661Z,15.60
2023-03-22T12:49:03.260Z,15.70
2023-03-22T12:51:31.485Z,15.60
2023-03-22T12:54:01.623Z,15.60
2023-03-22T12:56:37.819Z,15.60
2023-03-22T12:59:16.801Z,15.70
2023-03-22T13:01:51.385Z,15.80
2023-03-22T13:04:33.155Z,15.80
2023-03-22T13:07:16.273Z,15.70
2023-03-22T13:09:47.690Z,15.70
2023-03-22T13:12:35.766Z,15.70
2023-03-22T13:15:41.218Z,15.80
2023-03-22T13:18:31.763Z,15.80
2023-03-22T13:21:13.758Z,15.80
2023-03-22T13:23:57.589Z,15.80
2023-03-22T13:26:33.712Z,15.70
2023-03-22T13:29:08.864Z,15.70
2023-03-22T13:31:43.741Z,15.60
2023-03-22T13:34:20.238Z,15.60
2023-03-22T13:36:56.447Z,15.50
2023-03-22T13:39:28.349Z,15.50
2023-03-22T13:42:08.048Z,15.60
2023-03-22T13:44:43.038Z,15.50
2023-03-22T13:47:35.986Z,15.50
2023-03-22T13:50:11.247Z,15.50
2023-03-22T13:52:43.314Z,15.50
2023-03-22T13:55:59.020Z,15.40
2023-03-22T13:58:37.572Z,15.40
2023-03-22T14:01:07.967Z,15.30
2023-03-22T14:03:42.170Z,15.20
2023-03-22T14:06:20.186Z,15.20
2023-03-22T14:08:56.771Z,15.20
2023-03-22T14:11:29.717Z,15.20
2023-03-22T14:14:04.219Z,15.20
2023-03-22T14:16:41.282Z,15.10
2023-03-22T14:19:18.417Z,15.20
